Time;durP1;ratioP1;P1;durP2;ratioP2;P2;SDS_P1;SDS_P2;PMS_P1;PMS_P2;Temp;Humidity;BMP_temperature;BMP_pressure;BME280_temperature;BME280_humidity;BME280_pressure;Samples;Min_cycle;Max_cycle;Signal;HPM_P1;HPM_P2
2021/05/17 00:02:08;;;;;;;0.70;0.60;;;9.90;99.90;;;10.37;100.00;-20964.22;5086085;28;20437;-73
2021/05/17 00:04:36;;;;;;;0.70;0.60;;;9.80;99.90;;;10.39;100.00;-20964.78;5053432;28;20485;-73
2021/05/17 00:07:07;;;;;;;0.70;0.60;;;9.80;99.90;;;10.42;100.00;-20965.63;5053671;28;20430;-73
2021/05/17 00:09:35;;;;;;;0.70;0.60;;;9.80;99.90;;;10.50;100.00;-20967.81;5053551;28;20454;-74
2021/05/17 00:12:05;;;;;;;0.70;0.60;;;9.80;99.90;;;10.51;100.00;-20967.97;5052877;28;20474;-74
2021/05/17 00:14:34;;;;;;;0.70;0.57;;;9.90;99.90;;;10.53;100.00;-20968.66;5051252;28;20454;-72
2021/05/17 00:17:02;;;;;;;0.70;0.70;;;9.90;99.90;;;10.56;100.00;-20969.47;5053438;28;20434;-72
2021/05/17 00:19:31;;;;;;;0.70;0.70;;;9.90;99.90;;;10.47;100.00;-20967.00;5053345;28;20980;-73
2021/05/17 00:22:00;;;;;;;0.70;0.60;;;9.90;99.90;;;10.51;100.00;-20968.09;5053194;28;20414;-73
2021/05/17 00:24:27;;;;;;;0.70;0.63;;;9.90;99.90;;;10.57;100.00;-20969.75;5051500;28;20469;-73
2021/05/17 00:26:56;;;;;;;0.70;0.50;;;10.00;99.90;;;10.63;100.00;-20971.28;5051678;28;20443;-73
2021/05/17 00:29:25;;;;;;;0.70;0.60;;;10.00;99.90;;;10.56;100.00;-20969.47;5052022;28;20998;-73
2021/05/17 00:31:54;;;;;;;0.70;0.60;;;10.00;99.90;;;10.59;100.00;-20970.31;5053376;28;20512;-74
2021/05/17 00:34:22;;;;;;;0.70;0.60;;;10.00;99.90;;;10.66;100.00;-20971.97;5051196;28;20445;-72
2021/05/17 00:36:50;;;;;;;0.70;0.60;;;10.10;99.90;;;10.54;100.00;-20968.94;5052493;28;20547;-73
2021/05/17 00:39:18;;;;;;;0.70;0.60;;;10.10;99.90;;;10.61;100.00;-20970.88;5051642;28;20901;-73
2021/05/17 00:41:46;;;;;;;0.70;0.60;;;10.10;99.90;;;10.64;100.00;-20971.56;5068811;28;20434;-73
2021/05/17 00:44:14;;;;;;;0.70;0.60;;;10.10;99.90;;;10.63;100.00;-20971.41;5053145;28;20520;-73
2021/05/17 00:46:43;;;;;;;0.70;0.50;;;10.20;99.90;;;10.70;100.00;-20745.75;5038252;28;20455;-73
2021/05/17 00:49:12;;;;;;;0.70;0.50;;;10.20;99.90;;;10.70;100.00;-20440.13;5033211;28;20428;-72
2021/05/17 00:51:40;;;;;;;0.70;0.60;;;10.20;99.90;;;10.71;100.00;-20119.84;5034727;28;20443;-73
2021/05/17 00:54:08;;;;;;;0.70;0.60;;;10.20;99.90;;;10.66;100.00;-19785.19;5053124;28;21000;-74
2021/05/17 00:56:37;;;;;;;0.70;0.60;;;10.20;99.90;;;10.60;100.00;-19513.16;5053118;28;20445;-74
2021/05/17 00:59:06;;;;;;;0.70;0.60;;;10.20;99.90;;;10.59;100.00;-19345.03;5050201;28;20455;-74
2021/05/17 01:01:35;;;;;;;0.70;0.60;;;10.10;99.90;;;10.47;100.00;-19257.00;5052575;28;20427;-74
2021/05/17 01:04:03;;;;;;;0.70;0.60;;;10.10;99.90;;;10.35;100.00;-19156.31;5051853;28;20440;-73
2021/05/17 01:06:36;;;;;;;0.70;0.50;;;10.00;99.90;;;10.24;100.00;-19056.03;5051799;28;20426;-73
2021/05/17 01:09:06;;;;;;;0.70;0.57;;;9.90;99.90;;;10.14;100.00;-19043.69;5051323;28;20484;-75
2021/05/17 01:11:39;;;;;;;0.70;0.50;;;9.80;99.90;;;10.12;100.00;-18902.84;5053403;28;20443;-74
2021/05/17 01:14:08;;;;;;;0.70;0.60;;;9.70;99.90;;;10.08;100.00;-18969.59;5085024;28;20849;-74
2021/05/17 01:16:41;;;;;;;0.70;0.60;;;9.70;99.90;;;10.04;100.00;-19016.09;5051487;28;20790;-74
2021/05/17 01:19:20;;;;;;;0.70;0.60;;;9.70;99.90;;;10.03;100.00;-19025.84;5052836;28;20465;-74
2021/05/17 01:21:57;;;;;;;0.70;0.60;;;9.70;99.90;;;10.01;100.00;-19175.56;5051135;28;20433;-74
2021/05/17 01:24:27;;;;;;;0.70;0.60;;;9.70;99.90;;;10.02;100.00;-19233.41;5051713;28;20477;-74
2021/05/17 01:26:55;;;;;;;0.70;0.60;;;9.70;99.90;;;10.11;100.00;-19270.69;5051308;28;20533;-74
2021/05/17 01:29:24;;;;;;;0.70;0.60;;;9.70;99.90;;;10.03;100.00;-19476.59;5052627;28;20436;-74
2021/05/17 01:31:52;;;;;;;0.70;0.60;;;9.70;99.90;;;10.07;100.00;-19597.66;5050850;28;20436;-74
2021/05/17 01:34:20;;;;;;;0.70;0.60;;;9.70;99.90;;;10.10;100.00;-19668.63;5035104;28;20451;-74
2021/05/17 01:36:50;;;;;;;0.70;0.60;;;9.70;99.90;;;10.11;100.00;-19876.66;5050559;28;20461;-74
2021/05/17 01:39:23;;;;;;;0.70;0.60;;;9.70;99.90;;;10.11;100.00;-19996.84;5051803;28;20572;-74
2021/05/17 01:41:53;;;;;;;0.70;0.60;;;9.70;99.90;;;10.17;100.00;-20150.97;5054892;28;20410;-73
2021/05/17 01:44:24;;;;;;;0.70;0.60;;;9.70;99.90;;;10.20;100.00;-20266.78;5054472;28;20446;-74
2021/05/17 01:46:52;;;;;;;0.70;0.60;;;9.80;99.90;;;10.25;100.00;-20298.16;5082931;28;20884;-73
2021/05/17 01:49:22;;;;;;;0.70;0.60;;;9.80;99.90;;;10.29;100.00;-20276.69;5049294;28;20452;-73
2021/05/17 01:51:50;;;;;;;0.70;0.60;;;9.90;99.90;;;10.27;100.00;-20243.63;5054707;28;20430;-74
2021/05/17 01:54:20;;;;;;;0.70;0.60;;;9.90;99.90;;;10.26;100.00;-20373.53;5071017;28;20822;-74
2021/05/17 01:56:57;;;;;;;0.70;0.60;;;9.80;99.90;;;10.35;100.00;-20498.63;5056646;28;20424;-73
2021/05/17 01:59:33;;;;;;;0.70;0.50;;;9.90;99.90;;;10.50;100.00;-20492.50;5054804;28;20463;-73
2021/05/17 02:02:02;;;;;;;0.70;0.50;;;10.00;99.90;;;10.66;100.00;-20449.09;5054377;28;20428;-73
2021/05/17 02:04:32;;;;;;;0.70;0.50;;;10.10;99.90;;;10.64;100.00;-20431.28;5055759;28;20440;-73
2021/05/17 02:07:00;;;;;;;0.70;0.60;;;10.10;99.90;;;10.60;100.00;-20390.00;5055953;28;20430;-75
2021/05/17 02:09:32;;;;;;;0.70;0.60;;;10.10;99.90;;;10.63;100.00;-20348.22;5055273;28;20470;-74
2021/05/17 02:12:03;;;;;;;0.70;0.70;;;10.10;99.90;;;10.63;100.00;-20243.00;5055843;28;20774;-75
2021/05/17 02:14:58;;;;;;;0.70;0.60;;;10.20;99.90;;;10.77;100.00;-20246.72;5054264;28;20432;-74
2021/05/17 02:17:30;;;;;;;0.70;0.60;;;10.20;99.90;;;10.88;100.00;-20149.25;5053094;28;20461;-74
2021/05/17 02:19:59;;;;;;;0.70;0.60;;;10.30;99.90;;;10.82;100.00;-20024.88;5055737;28;20468;-74
2021/05/17 02:22:31;;;;;;;0.73;0.70;;;10.30;99.90;;;10.86;100.00;-19980.78;5054044;28;20446;-74
2021/05/17 02:25:20;;;;;;;0.70;0.60;;;10.30;99.90;;;10.89;100.00;-19821.16;5087802;28;20458;-74
2021/05/17 02:27:52;;;;;;;0.70;0.60;;;10.30;99.90;;;10.94;100.00;-19674.56;5071227;28;20446;-73
2021/05/17 02:30:22;;;;;;;0.70;0.60;;;10.30;99.90;;;10.86;100.00;-19639.94;5053359;28;20534;-74
2021/05/17 02:32:52;;;;;;;0.70;0.60;;;10.30;99.90;;;10.88;100.00;-19540.31;5053495;28;20460;-74
2021/05/17 02:35:33;;;;;;;0.70;0.60;;;10.40;99.90;;;10.87;100.00;-19462.22;5053678;28;20492;-74
2021/05/17 02:38:02;;;;;;;0.70;0.60;;;10.40;99.90;;;10.96;100.00;-19278.97;5053553;28;20997;-74
2021/05/17 02:40:34;;;;;;;0.70;0.60;;;10.40;99.90;;;10.92;100.00;-19160.00;5038067;28;20443;-74
2021/05/17 02:43:05;;;;;;;0.70;0.60;;;10.40;99.90;;;10.91;100.00;-19024.50;5053791;28;20438;-75
2021/05/17 02:45:43;;;;;;;0.70;0.60;;;10.40;99.90;;;10.99;100.00;-18780.59;5053293;28;20510;-73
2021/05/17 02:48:13;;;;;;;0.70;0.60;;;10.40;99.90;;;11.00;100.00;-18630.47;5054032;28;20439;-73
2021/05/17 02:50:46;;;;;;;0.80;0.70;;;10.40;99.90;;;10.94;100.00;-18463.44;5055202;28;20418;-73
2021/05/17 02:54:07;;;;;;;0.70;0.60;;;10.40;99.90;;;10.89;100.00;-18329.47;5053029;28;20480;-73
2021/05/17 02:57:01;;;;;;;0.70;0.60;;;10.40;99.90;;;10.88;100.00;-18108.56;5076527;28;20447;-73
2021/05/17 03:00:13;;;;;;;0.70;0.60;;;10.40;99.90;;;10.95;100.00;-17932.09;5075226;28;20470;-73
2021/05/17 03:03:15;;;;;;;0.70;0.60;;;10.40;99.90;;;10.86;100.00;-17656.69;5053763;28;20928;-74
2021/05/17 03:06:02;;;;;;;0.70;0.63;;;10.30;99.90;;;10.66;100.00;-17592.06;5071678;28;20550;-74
2021/05/17 03:08:46;;;;;;;0.70;0.60;;;10.20;99.90;;;10.53;100.00;-17388.84;5053450;28;20459;-74
2021/05/17 03:11:15;;;;;;;0.70;0.60;;;10.10;99.90;;;10.52;100.00;-17303.28;5045132;28;20525;-74
2021/05/17 03:13:44;;;;;;;0.70;0.60;;;10.10;99.90;;;10.61;100.00;-17189.91;5053219;28;20426;-74
2021/05/17 03:16:17;;;;;;;0.70;0.60;;;10.10;99.90;;;10.57;100.00;-17083.84;5086932;28;20800;-74
2021/05/17 03:18:45;;;;;;;0.70;0.60;;;10.10;99.90;;;10.54;100.00;-17065.66;5053475;28;20468;-74
2021/05/17 03:21:13;;;;;;;0.70;0.50;;;10.10;99.90;;;10.61;100.00;-17124.81;5054494;28;20480;-74
2021/05/17 03:23:41;;;;;;;0.70;0.60;;;10.10;99.90;;;10.60;100.00;-17192.19;5054251;28;20465;-74
2021/05/17 03:26:10;;;;;;;0.70;0.60;;;10.10;99.90;;;10.59;100.00;-17229.59;5053265;28;21028;-73
2021/05/17 03:28:37;;;;;;;0.70;0.60;;;10.10;99.90;;;10.76;100.00;-17092.69;5085778;28;20894;-74
2021/05/17 03:31:05;;;;;;;0.70;0.60;;;10.10;99.90;;;10.61;100.00;-17139.84;5053137;28;20415;-73
2021/05/17 03:33:35;;;;;;;0.80;0.70;;;10.10;99.90;;;10.60;100.00;-17129.63;5052391;28;20493;-74
2021/05/17 03:36:02;;;;;;;0.70;0.60;;;10.10;99.90;;;10.61;100.00;-17097.13;5053960;28;20873;-74
2021/05/17 03:38:30;;;;;;;0.70;0.50;;;10.10;99.90;;;10.70;100.00;-17001.25;5053990;28;20580;-74
2021/05/17 03:40:58;;;;;;;0.70;0.60;;;10.10;99.90;;;10.65;100.00;-17015.22;5052942;28;20442;-74
2021/05/17 03:43:26;;;;;;;0.70;0.50;;;10.10;99.90;;;10.80;100.00;-16832.69;5051745;28;20493;-73
2021/05/17 03:45:53;;;;;;;0.70;0.50;;;10.10;99.90;;;10.83;100.00;-16738.09;5041771;28;20954;-73
2021/05/17 03:48:21;;;;;;;0.70;0.50;;;10.20;99.90;;;10.89;100.00;-16674.00;5034935;28;20450;-73
2021/05/17 03:50:52;;;;;;;0.70;0.60;;;10.30;99.90;;;10.93;100.00;-16481.63;5046367;28;20906;-73
2021/05/17 03:53:20;;;;;;;0.70;0.50;;;10.30;99.90;;;11.01;100.00;-16209.59;5020808;28;20485;-73
2021/05/17 03:55:47;;;;;;;0.70;0.60;;;10.30;99.90;;;11.13;100.00;-16008.72;5037052;28;20492;-73
2021/05/17 03:58:15;;;;;;;0.70;0.60;;;10.40;99.90;;;11.10;100.00;-16020.69;5045326;28;20517;-73
2021/05/17 04:00:43;;;;;;;0.70;0.53;;;10.40;99.90;;;11.09;100.00;-15759.41;5052828;28;20524;-74
2021/05/17 04:03:16;;;;;;;0.70;0.50;;;10.40;99.90;;;11.06;100.00;-15492.75;5053879;28;20414;-73
2021/05/17 04:13:44;;;;;;;0.70;0.60;;;10.50;99.90;;;11.29;100.00;-14200.69;5053244;28;20463;-72
2021/05/17 04:16:11;;;;;;;0.70;0.60;;;10.60;99.90;;;11.18;100.00;-13711.50;5052114;28;20824;-73
2021/05/17 04:18:39;;;;;;;0.70;0.60;;;10.70;99.90;;;11.36;100.00;-13261.94;5051391;28;20513;-73
2021/05/17 04:21:07;;;;;;;0.70;0.60;;;10.70;99.90;;;11.43;100.00;-12878.31;5052683;28;20431;-73
2021/05/17 04:23:35;;;;;;;0.70;0.50;;;10.70;99.90;;;11.52;100.00;-12567.88;5053568;28;20807;-72
2021/05/17 04:26:04;;;;;;;0.70;0.60;;;10.80;99.90;;;11.59;100.00;-12163.91;5051961;28;20462;-74
2021/05/17 04:28:32;;;;;;;0.70;0.60;;;10.80;99.90;;;11.64;100.00;-12466.28;5050524;28;20458;-74
2021/05/17 04:31:00;;;;;;;0.70;0.70;;;10.80;99.90;;;11.55;100.00;-12610.97;5051251;28;20489;-73
2021/05/17 04:33:28;;;;;;;0.70;0.60;;;10.80;99.90;;;11.66;100.00;-12572.19;5051763;28;20846;-73
2021/05/17 04:35:56;;;;;;;0.73;0.70;;;10.90;99.90;;;11.57;100.00;-12822.47;5050143;28;20435;-73
2021/05/17 04:38:23;;;;;;;0.70;0.60;;;10.90;99.90;;;11.73;100.00;-13257.28;5051407;28;20448;-73
2021/05/17 04:40:52;;;;;;;0.70;0.67;;;11.00;99.90;;;11.87;100.00;-14084.38;5059862;28;20477;-73
2021/05/17 04:43:20;;;;;;;0.70;0.60;;;11.00;99.90;;;11.84;100.00;-15451.63;5050265;28;20427;-73
2021/05/17 04:45:47;;;;;;;0.70;0.60;;;11.10;99.90;;;11.75;100.00;-16867.16;5052625;28;20503;-73
2021/05/17 04:48:15;;;;;;;0.70;0.60;;;11.10;99.90;;;11.83;100.00;-17713.06;5053211;28;20415;-73
2021/05/17 04:50:43;;;;;;;0.70;0.70;;;11.10;99.90;;;11.77;100.00;-18806.63;5053558;28;20431;-75
2021/05/17 04:53:10;;;;;;;0.70;0.67;;;11.10;99.90;;;11.99;100.00;-19520.03;5052429;28;20484;-75
2021/05/17 04:55:38;;;;;;;0.70;0.60;;;11.10;99.90;;;12.12;100.00;-20638.03;5051518;28;20534;-73
2021/05/17 04:58:08;;;;;;;0.70;0.60;;;11.20;99.90;;;12.12;100.00;-21011.50;5053195;28;20517;-73
2021/05/17 05:00:36;;;;;;;0.70;0.60;;;11.20;99.90;;;12.23;100.00;-21014.53;5051720;28;21029;-73
2021/05/17 05:03:04;;;;;;;0.70;0.60;;;11.30;99.90;;;12.16;100.00;-21012.59;5085000;28;20477;-73
2021/05/17 05:05:32;;;;;;;0.70;0.60;;;11.30;99.90;;;12.27;100.00;-21015.66;5053060;28;20788;-74
2021/05/17 05:08:00;;;;;;;0.70;0.60;;;11.30;99.90;;;12.26;100.00;-21015.38;5052918;28;20463;-73
2021/05/17 05:10:28;;;;;;;0.70;0.60;;;11.40;99.90;;;12.38;100.00;-21018.69;5053158;28;20448;-73
2021/05/17 05:12:55;;;;;;;0.70;0.60;;;11.40;99.90;;;12.27;100.00;-21015.78;5085813;28;20459;-73
2021/05/17 05:15:25;;;;;;;0.70;0.60;;;11.40;99.90;;;12.25;100.00;-21015.09;5068282;28;20537;-74
2021/05/17 05:17:53;;;;;;;0.70;0.60;;;11.40;99.90;;;12.23;100.00;-21014.53;5055305;28;20490;-73
2021/05/17 05:20:20;;;;;;;0.70;0.60;;;11.40;99.90;;;12.32;100.00;-21017.03;5057126;28;20491;-73
2021/05/17 05:22:48;;;;;;;0.80;0.70;;;11.30;99.90;;;12.28;100.00;-21015.91;5054787;28;20471;-73
2021/05/17 05:25:17;;;;;;;0.70;0.60;;;11.30;99.90;;;12.22;100.00;-21014.25;5056515;28;20443;-73
2021/05/17 05:27:48;;;;;;;0.70;0.60;;;11.30;99.90;;;12.04;100.00;-21009.56;5056539;28;20912;-73
2021/05/17 05:32:54;;;;;;;0.70;0.60;;;11.20;99.90;;;12.04;100.00;-21009.56;5054743;28;20475;-73
2021/05/17 05:35:24;;;;;;;0.70;0.70;;;11.20;99.90;;;11.97;100.00;-21007.50;5055194;28;20849;-74
2021/05/17 05:37:51;;;;;;;0.70;0.60;;;11.20;99.90;;;12.02;100.00;-21008.88;5054013;28;20466;-73
2021/05/17 05:40:19;;;;;;;0.70;0.60;;;11.30;99.90;;;12.20;100.00;-21013.72;5055679;28;20455;-73
2021/05/17 05:42:46;;;;;;;0.70;0.67;;;11.40;99.90;;;12.44;100.00;-21020.34;5056465;28;20427;-73
2021/05/17 05:45:22;;;;;;;0.70;0.60;;;11.50;99.90;;;12.52;100.00;-21022.53;5055957;28;20419;-73
2021/05/17 05:47:50;;;;;;;0.73;0.70;;;11.60;99.90;;;12.58;100.00;-21024.19;5055793;28;20820;-74
2021/05/17 05:50:18;;;;;;;0.70;0.60;;;11.60;99.90;;;12.76;100.00;-21029.03;5056150;28;21039;-74
2021/05/17 05:52:45;;;;;;;0.70;0.60;;;11.70;99.90;;;12.66;100.00;-21026.28;5056191;28;20456;-74
2021/05/17 05:55:13;;;;;;;0.70;0.60;;;11.80;99.90;;;12.92;100.00;-21033.31;5056225;28;20448;-73
2021/05/17 05:57:42;;;;;;;0.70;0.63;;;11.90;99.90;;;12.78;100.00;-21029.44;5038072;28;20448;-75
2021/05/17 06:00:13;;;;;;;0.80;0.70;;;11.90;99.90;;;12.85;100.00;-21031.38;5053681;28;20468;-74
2021/05/17 06:02:42;;;;;;;0.70;0.63;;;11.90;99.90;;;13.01;100.00;-21035.78;5055093;28;20406;-74
2021/05/17 06:05:11;;;;;;;0.70;0.60;;;12.10;99.90;;;13.30;100.00;-21043.50;5088156;28;20480;-74
2021/05/17 06:07:39;;;;;;;0.70;0.60;;;12.20;99.90;;;13.29;100.00;-21043.25;5054788;28;20450;-74
2021/05/17 06:10:10;;;;;;;0.73;0.70;;;12.30;99.90;;;13.49;100.00;-21048.75;5055616;28;20527;-74
2021/05/17 06:12:40;;;;;;;0.70;0.67;;;12.50;99.90;;;13.65;100.00;-21052.88;5056113;28;20418;-74
2021/05/17 06:15:10;;;;;;;0.70;0.60;;;12.50;99.90;;;13.70;100.00;-21054.25;5055589;28;20407;-74
2021/05/17 06:17:38;;;;;;;0.70;0.60;;;12.50;99.90;;;13.26;100.00;-21042.56;5055958;28;20500;-73
2021/05/17 06:20:09;;;;;;;0.80;0.80;;;12.40;99.90;;;13.59;100.00;-21051.22;5053812;28;20484;-74
2021/05/17 06:22:38;;;;;;;0.70;0.60;;;12.50;99.90;;;13.66;100.00;-21053.31;5054847;28;20446;-73
2021/05/17 06:25:08;;;;;;;0.70;0.60;;;12.50;99.90;;;13.60;100.00;-21051.50;5054036;28;20546;-73
2021/05/17 06:27:37;;;;;;;0.70;0.67;;;12.60;99.90;;;13.91;100.00;-21060.03;5055139;28;20427;-73
2021/05/17 06:30:09;;;;;;;0.80;0.70;;;12.60;99.90;;;13.52;100.00;-21049.56;5078296;28;20802;-73
2021/05/17 06:32:37;;;;;;;0.70;0.63;;;12.60;99.90;;;13.88;100.00;-21059.22;5035478;28;20777;-73
2021/05/17 06:35:12;;;;;;;0.70;0.70;;;12.50;99.90;;;13.79;100.00;-21056.75;5035466;28;20416;-73
2021/05/17 06:37:39;;;;;;;0.80;0.70;;;12.60;99.90;;;13.93;100.00;-21060.59;5048203;28;20441;-73
2021/05/17 06:40:09;;;;;;;0.70;0.60;;;12.70;99.90;;;13.82;100.00;-21057.56;5055210;28;20451;-73
2021/05/17 06:42:37;;;;;;;0.80;0.80;;;12.90;99.90;;;13.88;100.00;-21059.22;5055174;28;20497;-74
2021/05/17 06:45:07;;;;;;;0.70;0.70;;;12.90;99.90;;;13.79;100.00;-21056.75;5054642;28;20515;-74
2021/05/17 06:47:36;;;;;;;0.70;0.60;;;12.90;99.90;;;14.13;100.00;-21065.97;5053900;28;20421;-74
2021/05/17 06:50:07;;;;;;;0.80;0.70;;;12.90;99.90;;;14.19;100.00;-21067.63;5054445;28;20804;-73
2021/05/17 06:52:36;;;;;;;0.80;0.70;;;13.10;99.90;;;14.61;100.00;-21078.78;5055052;28;20771;-74
2021/05/17 06:55:14;;;;;;;0.70;0.60;;;13.30;99.90;;;14.41;100.00;-21073.53;5054969;28;20434;-73
2021/05/17 07:02:54;;;;;;;0.70;0.60;;;13.50;99.90;;;14.30;100.00;-21070.53;5070664;28;20427;-74
2021/05/17 07:05:23;;;;;;;0.70;0.63;;;13.50;99.90;;;14.12;100.00;-21065.56;5054367;28;20436;-74
2021/05/17 07:13:17;;;;;;;0.70;0.60;;;13.30;99.90;;;14.06;100.00;-21063.91;5053311;28;20780;-74
2021/05/17 07:15:45;;;;;;;0.80;0.70;;;13.20;99.90;;;13.82;100.00;-21057.56;5054253;28;20837;-73
2021/05/17 07:18:14;;;;;;;0.70;0.70;;;13.20;99.90;;;13.64;100.00;-21052.63;5053250;28;20433;-73
2021/05/17 07:26:02;;;;;;;0.70;0.60;;;13.00;99.90;;;13.56;100.00;-21050.41;5033039;28;20455;-74
2021/05/17 07:28:30;;;;;;;0.70;0.60;;;12.90;99.90;;;13.63;100.00;-21052.34;5048876;28;20531;-73
2021/05/17 07:31:03;;;;;;;0.80;0.70;;;12.90;99.90;;;13.69;100.00;-21054.13;5053912;28;20445;-73
2021/05/17 07:33:33;;;;;;;0.70;0.63;;;13.00;99.90;;;14.19;100.00;-21067.63;5053389;28;20446;-74
2021/05/17 07:36:01;;;;;;;0.70;0.70;;;13.20;99.90;;;14.65;100.00;-21079.88;5054276;28;20451;-74
2021/05/17 07:38:32;;;;;;;0.70;0.63;;;13.50;99.90;;;15.07;100.00;-21091.16;5053269;28;20983;-74
2021/05/17 07:41:02;;;;;;;0.70;0.60;;;13.80;99.90;;;15.55;100.00;-21104.09;5054122;28;20487;-72
2021/05/17 07:43:30;;;;;;;0.70;0.60;;;13.90;99.90;;;15.21;100.00;-21095.16;5054083;28;20444;-75
2021/05/17 07:45:57;;;;;;;0.70;0.60;;;14.10;99.90;;;15.48;100.00;-21102.16;5052330;28;20916;-73
2021/05/17 07:48:25;;;;;;;0.73;0.67;;;14.30;99.90;;;15.57;100.00;-21104.63;5053994;28;20429;-73
2021/05/17 07:50:53;;;;;;;0.80;0.70;;;14.30;99.90;;;15.79;100.00;-21110.69;5053577;28;20505;-74
2021/05/17 07:53:21;;;;;;;0.80;0.80;;;14.60;99.90;;;15.72;100.00;-21108.75;5052841;28;20529;-73
2021/05/17 07:55:52;;;;;;;0.70;0.60;;;14.80;99.90;;;16.14;100.00;-21120.03;5053831;28;20413;-74
2021/05/17 07:58:21;;;;;;;0.70;0.60;;;14.60;99.90;;;16.24;100.00;-21122.78;5052748;28;20455;-73
2021/05/17 08:00:49;;;;;;;0.70;0.60;;;14.40;99.90;;;15.76;100.00;-21109.88;5053083;28;20816;-75
2021/05/17 08:03:17;;;;;;;0.70;0.60;;;14.30;99.90;;;15.40;100.00;-21100.25;5052349;28;20448;-73
2021/05/17 08:05:58;;;;;;;0.77;0.70;;;14.20;99.90;;;15.19;100.00;-21094.47;5053524;28;20442;-73
2021/05/17 08:08:26;;;;;;;0.70;0.70;;;14.20;99.90;;;15.21;100.00;-21095.00;5053952;28;20806;-73
2021/05/17 08:10:55;;;;;;;0.70;0.70;;;14.40;99.90;;;15.17;100.00;-21093.91;5053357;28;20415;-74
2021/05/17 08:13:23;;;;;;;0.70;0.60;;;14.30;99.90;;;15.58;100.00;-21104.91;5053488;28;20417;-73
2021/05/17 08:16:15;;;;;;;0.70;0.70;;;14.50;99.90;;;15.13;100.00;-21092.94;5050886;28;20528;-73
2021/05/17 08:18:43;;;;;;;0.70;0.70;;;14.50;99.90;;;14.97;100.00;-21088.69;5053633;28;20451;-74
2021/05/17 08:21:11;;;;;;;0.80;0.70;;;14.30;99.90;;;15.11;100.00;-21092.41;5051686;28;20520;-72
2021/05/17 08:23:40;;;;;;;0.70;0.60;;;14.10;99.90;;;15.11;100.00;-21092.25;5053281;28;20450;-73
2021/05/17 08:26:09;;;;;;;0.70;0.63;;;14.00;99.90;;;14.98;100.00;-21088.97;5053226;28;20569;-73
2021/05/17 08:28:40;;;;;;;0.70;0.60;;;14.00;99.90;;;14.53;100.00;-21076.72;5052654;28;20932;-73
2021/05/17 08:31:11;;;;;;;0.80;0.73;;;13.90;99.90;;;14.80;100.00;-21083.88;5052271;28;20475;-73
2021/05/17 08:33:40;;;;;;;0.70;0.63;;;13.90;99.90;;;14.66;100.00;-21080.28;5053098;28;20464;-74
2021/05/17 08:36:08;;;;;;;0.80;0.70;;;14.00;99.90;;;14.43;100.00;-21074.09;5052278;28;20523;-73
2021/05/17 08:38:36;;;;;;;0.80;0.70;;;13.90;99.90;;;14.55;100.00;-21077.13;5053997;28;20442;-72
2021/05/17 08:41:05;;;;;;;0.70;0.67;;;13.70;99.90;;;14.64;100.00;-21079.59;5051911;28;20844;-73
2021/05/17 08:43:37;;;;;;;0.70;0.60;;;13.70;99.90;;;14.78;100.00;-21083.47;5053310;28;20949;-75
2021/05/17 08:46:08;;;;;;;0.80;0.70;;;13.70;99.90;;;14.47;100.00;-21075.06;5085949;28;20423;-72
2021/05/17 08:48:46;;;;;;;0.70;0.60;;;13.80;99.90;;;14.70;100.00;-21081.25;5052901;28;20839;-72
2021/05/17 08:51:20;;;;;;;0.80;0.70;;;14.00;99.90;;;14.45;100.00;-21074.66;5057085;28;20415;-74
2021/05/17 08:53:50;;;;;;;0.80;0.70;;;14.00;99.90;;;14.31;100.00;-21070.78;5057086;28;20490;-74
2021/05/17 08:56:18;;;;;;;0.70;0.60;;;13.90;99.90;;;14.71;100.00;-21081.66;5057225;28;20455;-73
2021/05/17 08:58:47;;;;;;;0.80;0.73;;;14.10;99.90;;;14.37;100.00;-21072.44;5055693;28;20453;-75
2021/05/17 09:01:15;;;;;;;0.80;0.70;;;13.90;99.90;;;14.05;100.00;-21063.63;5055341;28;20471;-74
2021/05/17 09:03:55;;;;;;;0.80;0.80;;;13.60;99.90;;;13.93;100.00;-21060.47;5057133;28;20460;-75
2021/05/17 09:06:36;;;;;;;0.70;0.70;;;13.30;99.90;;;13.62;100.00;-21052.06;5057086;28;20527;-74
2021/05/17 09:09:06;;;;;;;0.80;0.70;;;13.30;99.90;;;13.82;100.00;-21057.56;5056928;28;20452;-74
2021/05/17 09:11:35;;;;;;;0.80;0.70;;;13.20;99.90;;;13.47;100.00;-21048.06;5089172;28;20428;-74
2021/05/17 09:14:13;;;;;;;0.70;0.60;;;13.20;99.90;;;13.80;100.00;-21056.88;5056834;28;20456;-75
2021/05/17 09:16:54;;;;;;;0.73;0.70;;;13.30;99.90;;;14.07;100.00;-21064.31;5055050;28;20435;-75
2021/05/17 09:19:22;;;;;;;0.70;0.60;;;13.50;99.90;;;14.95;100.00;-21088.13;5036813;28;20438;-74
2021/05/17 09:22:20;;;;;;;0.77;0.70;;;14.20;99.90;;;15.90;100.00;-21113.56;5036685;28;20471;-75
2021/05/17 09:24:51;;;;;;;0.70;0.60;;;15.10;99.90;;;16.83;100.00;-21138.72;5053898;28;20565;-75
2021/05/17 09:27:23;;;;;;;0.80;0.70;;;16.00;99.90;;;18.62;100.00;-21186.69;5055803;28;20442;-76
2021/05/17 09:29:54;;;;;;;0.80;0.67;;;16.60;99.90;;;18.17;100.00;-21174.50;5053811;28;20460;-75
2021/05/17 09:32:25;;;;;;;0.70;0.60;;;16.70;99.90;;;19.47;100.00;-21209.53;5056497;28;20387;-75
2021/05/17 09:35:02;;;;;;;0.70;0.60;;;17.60;99.90;;;19.41;100.00;-21207.75;5055300;28;20407;-76
2021/05/17 09:37:44;;;;;;;0.70;0.50;;;17.70;99.90;;;20.50;100.00;-21237.13;5055275;28;20507;-76
2021/05/17 09:40:23;;;;;;;0.70;0.60;;;18.20;99.90;;;20.30;100.00;-21231.69;5056066;28;20867;-75
2021/05/17 09:43:03;;;;;;;0.70;0.50;;;17.80;99.90;;;20.39;100.00;-21234.00;5055331;28;20404;-76
2021/05/17 09:45:46;;;;;;;0.70;0.60;;;18.10;99.90;;;22.02;100.00;-21277.66;5054921;28;20475;-74
2021/05/17 09:48:16;;;;;;;0.70;0.60;;;18.10;99.90;;;21.16;100.00;-21254.75;5056075;28;20835;-76
2021/05/17 09:51:07;;;;;;;0.70;0.50;;;18.80;99.90;;;21.29;100.00;-21258.16;5056524;28;20432;-77
2021/05/17 09:53:39;;;;;;;0.70;0.60;;;18.90;99.90;;;21.52;100.00;-21264.16;5054581;28;20436;-74
2021/05/17 09:56:10;;;;;;;0.70;0.60;;;17.50;99.90;;;20.27;100.00;-21231.00;5055571;28;20440;-74
2021/05/17 09:58:41;;;;;;;0.70;0.60;;;16.70;99.90;;;19.85;100.00;-21219.66;5054834;28;20975;-75
2021/05/17 10:01:14;;;;;;;0.80;0.70;;;16.90;99.90;;;18.37;100.00;-21179.84;5033691;28;20456;-74
2021/05/17 10:03:45;;;;;;;0.80;0.70;;;17.00;99.90;;;19.39;100.00;-21207.22;5035958;28;20413;-74
2021/05/17 10:06:18;;;;;;;0.70;0.60;;;17.80;99.90;;;18.78;100.00;-21191.06;5044793;28;20424;-74
2021/05/17 10:08:46;;;;;;;0.80;0.60;;;17.90;95.50;;;18.07;100.00;-21171.88;5055590;28;20470;-74
2021/05/17 10:11:15;;;;;;;0.80;0.60;;;16.80;95.40;;;17.61;100.00;-21159.56;5054849;28;20539;-74
2021/05/17 10:13:44;;;;;;;0.80;0.70;;;16.10;95.10;;;16.75;100.00;-21136.38;5055567;28;20444;-74
2021/05/17 10:16:14;;;;;;;0.80;0.60;;;15.90;96.80;;;17.02;100.00;-21143.66;5055130;28;20391;-74
2021/05/17 10:18:44;;;;;;;0.70;0.60;;;16.10;98.30;;;18.15;100.00;-21173.94;5055244;28;20498;-74
2021/05/17 10:21:15;;;;;;;0.80;0.70;;;16.80;98.10;;;18.35;100.00;-21179.56;5055652;28;20456;-74
2021/05/17 10:23:44;;;;;;;0.80;0.70;;;17.40;93.00;;;18.63;100.00;-21186.81;5054618;28;20535;-75
2021/05/17 10:26:14;;;;;;;0.80;0.70;;;17.30;93.90;;;18.92;100.00;-21194.63;5054799;28;20436;-74
2021/05/17 10:28:47;;;;;;;0.80;0.70;;;17.70;93.70;;;18.45;100.00;-21182.03;5055367;28;20485;-75
2021/05/17 10:31:21;;;;;;;0.70;0.60;;;17.50;92.40;;;17.43;100.00;-21154.75;5060414;28;20978;-74
2021/05/17 10:33:59;;;;;;;0.80;0.70;;;16.50;92.50;;;16.63;100.00;-21133.34;5055636;28;20519;-73
2021/05/17 10:36:47;;;;;;;0.70;0.60;;;16.00;93.70;;;16.31;100.00;-21124.69;5054098;28;20398;-74
2021/05/17 10:39:15;;;;;;;0.80;0.70;;;15.70;94.00;;;16.21;100.00;-21121.97;5055133;28;20436;-74
2021/05/17 10:48:24;;;;;;;0.80;0.70;;;12.40;99.90;;;12.47;100.00;-21021.03;5047829;28;20442;-76
2021/05/17 10:51:10;;;;;;;0.77;0.67;;;12.10;99.90;;;12.65;100.00;-21025.84;5055105;28;20507;-77
2021/05/17 10:53:43;;;;;;;0.80;0.70;;;12.10;99.90;;;12.36;100.00;-21018.00;5036909;28;20467;-76
2021/05/17 10:56:14;;;;;;;0.70;0.60;;;12.00;99.90;;;12.47;100.00;-21021.16;5053682;28;20921;-75
2021/05/17 11:01:57;;;;;;;0.70;0.60;;;12.10;99.90;;;12.80;100.00;-16843.47;5054162;28;20468;-76